Enderby, United Kingdom
Current Conditions -  °F | °C
As of 4:20 AM on Monday 22 Dec 2014 (Local Time) from EGNX Reporting Station
Broken Clouds Broken Clouds  
Wind Chill: 54°   Ceiling: 1500
Heat Index: 54°   Visibility: 6mi
Dew Point: 48°   Wind: 33mph
Humidity: 82%   Direction: 240°WSW
Pressure: 29.88"   Gusts: 45mph
Location:  52.59°N, 1.21°W
Report Text: EGNX 220420Z 24029G39KT 9999 BKN015 BKN022 12/09 Q1012
Loading
Personal Weather Stations






























Interactive Weather Map New forecast layout! Learn more

10-Day Weather Forecast

Advertisements
Track Severe Weather on mobile